Little Rock, AR (72212)

3:43 AM CST on December 29, 2014 (GMT -0600)
Riverland | Change Station
CLOSE
Current Station
Personal Weather Station
Location: Maumelle, AR
Elevation: 312 ft
Nearby Weather Stations

Elev 312 ft 34.83 °N, 92.40 °W | Updated 2 minutes ago

Mostly Cloudy
Mostly Cloudy
34.9 °F
Feels Like 35 °F
N
0.0
Wind Variable Wind from North
Gusts 0.0 mph

Today
High -- | Low -- °F
--% Chance of Precip.
Yesterday
High -- | Low -- °F
Precip. -- in
7:16 AM 5:07 PM
First Quarter, 57% visible
Pressure 30.21 in
Visibility 10.0 miles
Clouds Overcast 1300 ft
Windchill 35 °F
Dew Point 30 °F
Humidity 84%
Rainfall 0.00 in
Snow Depth Not available.
UV 0.0 out of 12
Pollen 1.60 out of 12
Air Quality Not available.
Flu Activity Not available.
METAR KLIT 290853Z 02004KT 10SM OVC013 03/M01 A3020 RMK AO2 SLP229 T00281006 58000 $

More Conditions Fewer Conditions

Pressure 30.21 in
Visibility 10.0 miles
Clouds Overcast 1300 ft
Windchill 35 °F
Dew Point 30 °F
Humidity 84%
Rainfall 0.00 in
Snow Depth Not available.
UV 0.0 out of 12
Pollen 1.60 out of 12
Air Quality Not available.
Flu Activity Not available.
METAR KLIT 290853Z 02004KT 10SM OVC013 03/M01 A3020 RMK AO2 SLP229 T00281006 58000 $

More Conditions Fewer Conditions

10-Day Weather Forecast

Almanac

Astronomy

Dec. 29, 2014 Rise Set
Actual Time
Civil Twilight
Nautical Twilight
Astronomical Twilight
Moon
Length of Visible Light
Length of Day
Tomorrow will be .
, % of the Moon is Illuminated

Today's Extremes

State Highs State Lows

Community

WunderPhotos

Upload Photos

1,781,562 photos uploaded!

WunderBlogs® & News

Nearby

Air Quality

  Air Quality AQ Index Pollutant
Not available.

Snow Depth

Station Depth Elevation

Earthquake Activity

City Distance Mag. Time & Date
Minimum magnitude displayed is 2.5.

Coastal Water Temperatures

Place Temperature

Nearby Weather Stations